Aktuální počasí v Česku a ve světě - METAR

Seznam meteostanic umístěných nejčasteji na letišti v ČR a ve světě

Vyhledat místa podle abecedy:
A B C D E F G H I J K L M N O P Q R S T U V W X Y Z

Filtrovat:

ID stanice:
a/nebo
Název místa (fulltext):
 
Místo (ID)Naposledy načteno 
Aalborg (EKYT) 01.12.2020 05:50 UTC Zobrazit METAR
EKYT 010550Z AUTO 07003KT 2300 BR BKN005/// OVC013/// 03/03 Q1013
Aarhus (EKAH) 01.12.2020 05:50 UTC Zobrazit METAR
EKAH 010550Z AUTO 01002KT 3500 -RA BR OVC009/// 04/04 Q1013
Abu Dhabi (OMAA) 01.12.2020 06:00 UTC Zobrazit METAR
OMAA 010600Z 12004KT 7000 NSC 24/19 Q1018 NOSIG
Abuja (DNAA) 01.12.2020 06:00 UTC Zobrazit METAR
DNAA 010600Z 08004KT CAVOK 19/14 Q1013 NOSIG
Accra (DGAA) 01.12.2020 06:00 UTC Zobrazit METAR
DGAA 010600Z 27006KT CAVOK 26/25 Q1011 NOSIG
Addis Abeba (HAAB) 01.12.2020 06:00 UTC Zobrazit METAR
HAAB 010600Z 09009KT 9999 FEW025 17/09 Q1027
Agana (PGUM) 01.12.2020 05:54 UTC Zobrazit METAR
PGUM 010554Z 09010KT 10SM CLR 29/24 A2981 RMK AO2 SLP086 60006 T02890239 10300 20278 56010
Ahe Island (NTHE) Zatím nenačteno  
Akureyri (BIAR) 01.12.2020 06:00 UTC Zobrazit METAR
BIAR 010600Z 16027KT CAVOK 07/02 Q0986
Almaty (UAAA) Zatím nenačteno  
Amman (OJAM) 01.12.2020 06:00 UTC Zobrazit METAR
OJAM 010600Z 00000KT 3000 FU FEW020 08/06 Q1016 NOSIG
Amsterdam (EHAM) 01.12.2020 00:55 UTC Zobrazit METAR
EHAM 010055Z 32011KT 9999 FEW020 08/06 Q1012 NOSIG
Antananarivo (FMMI) 01.12.2020 06:00 UTC Zobrazit METAR
FMMI 010600Z 03003KT 320V090 9999 FEW020 SCT023 25/17 Q1018 NOSIG
Antwerp (EBAW) 01.12.2020 05:50 UTC Zobrazit METAR
EBAW 010550Z 33012KT 6000 -RA SCT007 BKN011 08/07 Q1014 TEMPO 4000 RA BKN009
Apia (NSFA) 01.12.2020 04:00 UTC Zobrazit METAR
NSFA 010400Z 00000KT 9999 FEW020 SCT060 BKN200 29/26 Q1009
Aruba I (TNCA) 01.12.2020 06:00 UTC Zobrazit METAR
TNCA 010600Z 10011KT 9999 FEW017 27/25 Q1011 NOSIG
Ascension I. (FHAW) 30.11.2020 11:50 UTC Zobrazit METAR
FHAW 301150Z 14014KT 9999 FEW016 28/20 Q1015 NOSIG RMK BLU BLU
Ashgabat (UTAA) 01.12.2020 06:00 UTC Zobrazit METAR
UTAA 010600Z 09004KT 6000 FEW006 OVC033 03/02 Q1027 R88/CLRD70 NOSIG
Asmara (HHAS) 03.02.2015 17:00 UTC Zobrazit METAR
HHAS 031700Z 27004KT CAVOK 15/06 Q1028 NOSIG
Astana (UACC) Zatím nenačteno  
Astrakhan (URWA) Zatím nenačteno  
Asuncion (SGAS) 01.12.2020 06:00 UTC Zobrazit METAR
SGAS 010600Z 00000KT CAVOK 22/21 Q1013
Athens (LGAV) 01.12.2020 05:50 UTC Zobrazit METAR
LGAV 010550Z 03016KT 9999 FEW015 BKN025 11/07 Q1018 RMK NOSIG
Reklama


Další české internetové stránky (nejen) o počasí najdete v katalogu TOPlist - weby o počasí nebo vyhledejte na internetu, co jste tu na 🌞 Slunečnu ⛅ zatím nenašli:
⭐ Přidat Slunečno.cz do oblíbených | 🏠 Nastavit Slunečno.cz jako HOMEPAGE

⬆️ Posunout stránku nahoru ⬆️
Reklama